Time;durP1;ratioP1;P1;durP2;ratioP2;P2;SDS_P1;SDS_P2;PMS_P1;PMS_P2;Temp;Humidity;BMP_temperature;BMP_pressure;BME280_temperature;BME280_humidity;BME280_pressure;Samples;Min_cycle;Max_cycle;Signal;HPM_P1;HPM_P2
2022/11/06 00:01:22;;;;;;;5.67;1.80;;;24.10;52.80;;;;;;5051859;28;20199;-66
2022/11/06 00:03:52;;;;;;;6.43;2.07;;;24.10;53.00;;;;;;5050519;28;20207;-66
2022/11/06 00:09:10;;;;;;;6.33;2.00;;;23.70;53.90;;;;;;5049774;28;20265;-66
2022/11/06 00:11:39;;;;;;;7.97;2.00;;;23.80;53.70;;;;;;5049634;28;20187;-65
2022/11/06 00:14:07;;;;;;;12.13;2.07;;;24.00;52.80;;;;;;5047700;28;20302;-66
2022/11/06 00:16:36;;;;;;;4.90;1.83;;;23.90;53.20;;;;;;5054186;28;20207;-67
2022/11/06 00:19:04;;;;;;;6.20;1.63;;;24.10;53.00;;;;;;5053984;28;20277;-66
2022/11/06 00:21:32;;;;;;;6.87;1.67;;;24.00;53.10;;;;;;5042523;28;20539;-66
2022/11/06 00:24:01;;;;;;;5.47;1.70;;;24.20;51.90;;;;;;5047436;28;20700;-68
2022/11/06 00:26:30;;;;;;;7.13;2.07;;;24.30;51.30;;;;;;5055028;28;20265;-65
2022/11/06 00:28:58;;;;;;;4.60;1.60;;;24.30;50.60;;;;;;5054223;28;20215;-67
2022/11/06 00:31:28;;;;;;;11.50;1.63;;;24.20;50.40;;;;;;5052047;28;20237;-66
2022/11/06 00:33:57;;;;;;;6.67;1.73;;;24.20;51.10;;;;;;5043758;28;20713;-66
2022/11/06 00:36:26;;;;;;;5.80;1.53;;;24.30;50.60;;;;;;5049567;28;20242;-66
2022/11/06 00:38:55;;;;;;;4.80;1.40;;;24.30;50.80;;;;;;5053709;28;20267;-66
2022/11/06 00:41:23;;;;;;;8.77;1.80;;;24.40;49.80;;;;;;5051542;28;20190;-65
2022/11/06 00:43:53;;;;;;;4.27;1.60;;;24.50;49.90;;;;;;5056859;28;20180;-66
2022/11/06 00:46:21;;;;;;;7.03;1.70;;;24.60;49.30;;;;;;5058073;28;20192;-66
2022/11/06 00:48:48;;;;;;;6.67;1.37;;;24.50;49.60;;;;;;5048959;28;20654;-66
2022/11/06 00:51:19;;;;;;;6.37;1.37;;;24.70;48.70;;;;;;5047700;28;20213;-67
2022/11/06 00:53:46;;;;;;;5.73;1.33;;;24.30;48.90;;;;;;5064957;28;20176;-66
2022/11/06 00:56:18;;;;;;;7.40;1.73;;;24.40;50.50;;;;;;5061220;28;20298;-68
2022/11/06 00:58:46;;;;;;;2.50;1.23;;;24.60;48.10;;;;;;5051476;28;20187;-66
2022/11/06 01:01:22;;;;;;;7.53;1.53;;;24.40;49.30;;;;;;5058354;28;20197;-68
2022/11/06 01:04:04;;;;;;;6.17;1.53;;;24.40;48.70;;;;;;5060989;28;20483;-67
2022/11/06 01:06:37;;;;;;;5.80;1.33;;;24.60;51.40;;;;;;5062419;28;20184;-67
2022/11/06 01:09:06;;;;;;;6.37;1.60;;;24.90;51.50;;;;;;5061333;28;20190;-67
2022/11/06 01:11:42;;;;;;;4.03;1.50;;;25.30;50.60;;;;;;5063065;28;20252;-66
2022/11/06 01:14:12;;;;;;;8.63;1.57;;;25.30;49.80;;;;;;5053783;28;20184;-66
2022/11/06 01:16:40;;;;;;;9.00;1.60;;;25.30;50.00;;;;;;5052851;28;20716;-66
2022/11/06 01:19:10;;;;;;;3.50;1.60;;;25.00;50.50;;;;;;5054157;28;20172;-66
2022/11/06 01:21:39;;;;;;;5.67;1.70;;;24.80;51.20;;;;;;5052751;28;20195;-68
2022/11/06 01:24:14;;;;;;;4.40;1.43;;;24.60;51.70;;;;;;5051173;28;20203;-68
2022/11/06 01:26:42;;;;;;;5.77;1.33;;;24.80;51.10;;;;;;5063120;28;20178;-66
2022/11/06 01:29:12;;;;;;;4.17;1.20;;;25.00;52.20;;;;;;5052385;28;20266;-69
2022/11/06 01:31:40;;;;;;;5.80;1.30;;;24.80;51.50;;;;;;5041169;28;20171;-69
2022/11/06 01:34:08;;;;;;;5.43;1.50;;;25.30;51.00;;;;;;5056221;28;20752;-67
2022/11/06 01:36:35;;;;;;;8.23;1.70;;;25.20;50.90;;;;;;5064321;28;20211;-68
2022/11/06 01:39:06;;;;;;;4.33;1.27;;;25.40;50.70;;;;;;5061720;28;20179;-67
2022/11/06 01:41:36;;;;;;;5.23;1.20;;;24.70;50.60;;;;;;5055879;28;20673;-68
2022/11/06 01:44:35;;;;;;;8.03;1.53;;;24.30;52.40;;;;;;5057895;28;20216;-67
2022/11/06 01:47:16;;;;;;;6.27;1.20;;;24.60;52.40;;;;;;5055219;28;20716;-67
2022/11/06 01:49:43;;;;;;;5.23;1.27;;;24.40;52.50;;;;;;5059986;28;20187;-68
2022/11/06 01:52:14;;;;;;;3.17;1.00;;;24.30;51.70;;;;;;5068535;28;20172;-72
2022/11/06 01:54:45;;;;;;;5.50;1.40;;;24.30;53.20;;;;;;5060836;28;20203;-70
2022/11/06 01:57:13;;;;;;;4.83;1.40;;;24.30;51.80;;;;;;5058957;28;20207;-67
2022/11/06 01:59:44;;;;;;;7.27;1.50;;;24.30;52.40;;;;;;5056562;28;20649;-69
2022/11/06 02:02:13;;;;;;;4.27;1.30;;;24.30;52.80;;;;;;5060816;28;20184;-73
2022/11/06 02:04:47;;;;;;;3.63;1.30;;;24.30;52.30;;;;;;5059141;28;20187;-71
2022/11/06 02:07:17;;;;;;;6.20;1.30;;;24.30;51.80;;;;;;5046844;28;20193;-70
2022/11/06 02:09:44;;;;;;;5.20;1.30;;;24.50;52.10;;;;;;5061682;28;20549;-70
2022/11/06 02:12:37;;;;;;;3.03;1.20;;;24.70;51.90;;;;;;5058490;28;20230;-73
2022/11/06 02:15:23;;;;;;;5.23;1.23;;;24.80;51.50;;;;;;5053652;28;20183;-74
2022/11/06 02:18:32;;;;;;;4.17;1.00;;;24.80;50.70;;;;;;5046764;28;20251;-71
2022/11/06 02:21:20;;;;;;;6.90;1.20;;;24.40;51.40;;;;;;4968578;28;20215;-75
2022/11/06 02:23:53;;;;;;;6.87;1.20;;;24.70;50.40;;;;;;5038850;28;20210;-67
2022/11/06 02:26:54;;;;;;;6.07;1.40;;;24.80;50.10;;;;;;5043097;28;20204;-68
2022/11/06 02:29:41;;;;;;;4.13;1.13;;;24.80;51.10;;;;;;5045847;28;20626;-67
2022/11/06 02:32:18;;;;;;;8.93;3.20;;;25.10;50.80;;;;;;5043041;28;20179;-67
2022/11/06 02:34:47;;;;;;;7.37;2.37;;;25.30;50.00;;;;;;5052030;28;20195;-67
2022/11/06 02:37:19;;;;;;;7.97;1.43;;;25.50;48.80;;;;;;5046588;28;20215;-72
2022/11/06 02:39:50;;;;;;;4.73;1.27;;;25.60;47.90;;;;;;5036638;28;20204;-73
2022/11/06 02:42:20;;;;;;;4.20;1.40;;;25.60;48.10;;;;;;5044995;28;20184;-70
2022/11/06 02:44:51;;;;;;;5.33;1.10;;;25.80;48.00;;;;;;5052435;28;20581;-71
2022/11/06 02:47:21;;;;;;;4.17;1.20;;;25.50;47.60;;;;;;5052696;28;20488;-71
2022/11/06 02:49:48;;;;;;;3.77;1.20;;;25.70;47.00;;;;;;5052350;28;20183;-70
2022/11/06 02:52:38;;;;;;;4.27;1.50;;;25.40;46.90;;;;;;5052619;28;20175;-66
2022/11/06 02:55:28;;;;;;;3.67;1.23;;;25.30;47.70;;;;;;5052525;28;20583;-66
2022/11/06 02:58:02;;;;;;;4.13;1.30;;;25.70;46.90;;;;;;5050405;28;20290;-67
2022/11/06 03:00:31;;;;;;;4.97;1.30;;;25.20;48.20;;;;;;5051932;28;20582;-68
2022/11/06 03:03:15;;;;;;;6.73;1.37;;;25.20;47.10;;;;;;5052401;28;20180;-66
2022/11/06 03:06:01;;;;;;;3.03;1.37;;;25.30;47.30;;;;;;5047515;28;20534;-66
2022/11/06 03:08:44;;;;;;;2.80;1.03;;;24.70;49.60;;;;;;5052395;28;20225;-66
2022/11/06 03:11:37;;;;;;;4.50;1.23;;;25.40;48.00;;;;;;5047123;28;20183;-66
2022/11/06 03:14:39;;;;;;;4.57;1.50;;;25.60;48.00;;;;;;5052420;28;20246;-66
2022/11/06 03:17:37;;;;;;;6.90;1.37;;;25.30;48.20;;;;;;5023289;28;20229;-68
2022/11/06 03:20:17;;;;;;;5.60;1.30;;;25.40;48.00;;;;;;5067953;28;20176;-72
2022/11/06 03:22:50;;;;;;;4.63;1.33;;;25.30;48.70;;;;;;5052204;28;20583;-68
2022/11/06 03:25:21;;;;;;;4.47;1.50;;;25.70;48.10;;;;;;5051781;28;20187;-69
2022/11/06 03:27:57;;;;;;;5.33;1.70;;;25.40;48.60;;;;;;5051660;28;20207;-68
2022/11/06 03:30:25;;;;;;;3.23;0.87;;;25.60;48.90;;;;;;5052427;28;20186;-71
2022/11/06 03:32:58;;;;;;;2.00;1.00;;;26.20;47.60;;;;;;5044017;28;20183;-73
2022/11/06 03:35:46;;;;;;;3.50;1.00;;;26.40;45.40;;;;;;5052013;28;20168;-74
2022/11/06 03:38:25;;;;;;;5.50;1.30;;;26.60;45.40;;;;;;5052044;28;20260;-69
2022/11/06 03:41:04;;;;;;;7.70;1.17;;;26.70;45.50;;;;;;5052199;28;20598;-69
2022/11/06 03:43:36;;;;;;;3.23;1.10;;;26.60;46.50;;;;;;5051583;28;20182;-71
2022/11/06 03:46:10;;;;;;;2.23;1.00;;;26.40;47.40;;;;;;5051917;28;20657;-71
2022/11/06 03:48:46;;;;;;;7.90;1.40;;;25.80;48.70;;;;;;5052141;28;20169;-70
2022/11/06 03:51:21;;;;;;;5.90;1.10;;;25.70;50.20;;;;;;5046719;28;20561;-67
2022/11/06 03:54:04;;;;;;;5.43;1.97;;;26.10;49.30;;;;;;5050991;28;20176;-71
2022/11/06 03:56:46;;;;;;;3.67;1.40;;;26.50;48.20;;;;;;5046927;28;20697;-71
2022/11/06 03:59:18;;;;;;;6.43;1.30;;;26.10;49.20;;;;;;5055538;28;20193;-68
2022/11/06 04:01:47;;;;;;;3.23;1.10;;;26.20;48.30;;;;;;5054685;28;20638;-71
2022/11/06 04:04:26;;;;;;;13.00;2.47;;;25.80;48.50;;;;;;5055738;28;20184;-71
2022/11/06 04:07:11;;;;;;;6.23;2.50;;;26.10;48.70;;;;;;5046646;28;20436;-72
2022/11/06 04:15:18;;;;;;;5.03;1.33;;;26.80;47.90;;;;;;5055656;28;20187;-74
2022/11/06 04:17:46;;;;;;;4.90;1.50;;;26.50;47.90;;;;;;5055829;28;20223;-66
2022/11/06 04:21:20;;;;;;;3.73;1.07;;;26.80;47.90;;;;;;5055642;28;20192;-67
2022/11/06 04:23:17;;;;;;;4.67;1.00;;;26.50;48.00;;;;;;5052272;28;20192;-68
2022/11/06 04:29:03;;;;;;;6.87;1.87;;;26.30;48.30;;;;;;5055134;28;20206;-67
2022/11/06 04:31:57;;;;;;;6.60;1.40;;;26.10;48.30;;;;;;5054890;28;20237;-68
2022/11/06 04:34:34;;;;;;;4.07;1.10;;;26.00;48.60;;;;;;5054952;28;20190;-67
2022/11/06 04:37:31;;;;;;;4.80;1.20;;;26.50;47.70;;;;;;5054899;28;20233;-66
2022/11/06 04:40:04;;;;;;;3.60;1.13;;;26.60;46.10;;;;;;5046772;28;20187;-67
2022/11/06 04:42:39;;;;;;;5.17;1.17;;;26.50;47.10;;;;;;5040342;28;20179;-72
2022/11/06 04:45:29;;;;;;;6.07;1.60;;;26.10;47.50;;;;;;5038501;28;20228;-73
2022/11/06 04:47:58;;;;;;;4.87;1.40;;;26.40;46.90;;;;;;5054181;28;20172;-72
2022/11/06 04:50:28;;;;;;;2.90;1.17;;;26.30;47.40;;;;;;5051629;28;20639;-74
2022/11/06 04:52:57;;;;;;;7.17;1.20;;;26.10;47.00;;;;;;5054638;28;20183;-73
2022/11/06 04:55:28;;;;;;;4.47;1.40;;;26.30;47.70;;;;;;5049342;28;20190;-66
2022/11/06 04:57:55;;;;;;;8.17;1.13;;;26.80;47.10;;;;;;5045179;28;20299;-67
2022/11/06 05:00:23;;;;;;;6.90;1.30;;;27.30;45.90;;;;;;5048436;28;20211;-67
2022/11/06 05:02:50;;;;;;;4.53;1.20;;;26.80;46.40;;;;;;5053896;28;20172;-66
2022/11/06 05:05:17;;;;;;;3.27;1.23;;;26.60;46.80;;;;;;5053197;28;20494;-67
2022/11/06 05:07:45;;;;;;;4.67;1.40;;;26.60;47.40;;;;;;5053840;28;20569;-69
2022/11/06 05:10:12;;;;;;;6.27;1.10;;;26.20;48.00;;;;;;5051636;28;20176;-67
2022/11/06 05:12:39;;;;;;;4.60;1.10;;;26.30;47.90;;;;;;5053442;28;20184;-67
2022/11/06 05:15:07;;;;;;;7.37;1.20;;;26.30;48.40;;;;;;5048616;28;20594;-66
2022/11/06 05:17:35;;;;;;;6.63;1.37;;;26.90;47.20;;;;;;5027968;28;20690;-67
2022/11/06 05:20:02;;;;;;;6.70;1.57;;;26.90;47.50;;;;;;5054043;28;20172;-67
2022/11/06 05:25:15;;;;;;;7.77;1.70;;;26.40;48.30;;;;;;5052624;28;20189;-68
2022/11/06 05:27:43;;;;;;;4.57;1.73;;;26.20;49.10;;;;;;5053559;28;20222;-67
2022/11/06 05:30:11;;;;;;;4.17;1.27;;;26.40;48.90;;;;;;5053544;28;20238;-67
2022/11/06 05:32:38;;;;;;;5.73;2.03;;;26.10;49.50;;;;;;5043040;28;20184;-66
2022/11/06 05:35:06;;;;;;;6.03;1.47;;;26.50;48.90;;;;;;5049561;28;20176;-66
2022/11/06 05:37:33;;;;;;;8.30;1.40;;;26.10;48.80;;;;;;5052415;28;20207;-67
2022/11/06 05:40:01;;;;;;;6.13;1.20;;;26.70;48.30;;;;;;5053971;28;20184;-67
2022/11/06 05:42:28;;;;;;;4.50;1.20;;;26.80;46.70;;;;;;5053373;28;20643;-66
2022/11/06 05:44:55;;;;;;;6.73;1.67;;;25.80;48.90;;;;;;5052946;28;20234;-66
2022/11/06 05:47:23;;;;;;;5.10;1.33;;;26.10;49.40;;;;;;5053456;28;20583;-67
2022/11/06 05:49:50;;;;;;;7.63;1.70;;;27.00;47.60;;;;;;5051349;28;20171;-65
2022/11/06 05:52:17;;;;;;;10.30;1.50;;;26.90;47.10;;;;;;5052862;28;20191;-66
2022/11/06 05:54:45;;;;;;;5.97;1.20;;;26.40;49.00;;;;;;5053285;28;20547;-67
2022/11/06 05:57:12;;;;;;;2.90;1.30;;;26.30;48.30;;;;;;5049755;28;20207;-67
2022/11/06 05:59:39;;;;;;;6.10;1.53;;;26.50;48.60;;;;;;5053363;28;20290;-67
2022/11/06 06:02:09;;;;;;;8.43;1.43;;;26.70;48.10;;;;;;5053004;28;20184;-68
2022/11/06 06:04:36;;;;;;;8.27;1.80;;;26.10;49.60;;;;;;5041866;28;20260;-67
2022/11/06 06:07:04;;;;;;;8.67;1.33;;;26.20;49.00;;;;;;5048160;28;20263;-66
2022/11/06 06:09:31;;;;;;;5.93;1.47;;;26.30;48.60;;;;;;5039954;28;20208;-66
2022/11/06 06:11:59;;;;;;;4.63;1.50;;;26.40;49.10;;;;;;5032531;28;20248;-67
2022/11/06 06:14:26;;;;;;;9.90;1.23;;;27.00;47.40;;;;;;5052989;28;20257;-68
2022/11/06 06:16:53;;;;;;;4.93;1.57;;;26.60;47.90;;;;;;5044529;28;20224;-65
2022/11/06 06:19:21;;;;;;;6.30;1.37;;;25.80;49.50;;;;;;5050976;28;20275;-67
2022/11/06 06:21:48;;;;;;;5.13;1.30;;;25.70;50.70;;;;;;5049606;28;20188;-66
2022/11/06 06:24:15;;;;;;;5.73;1.60;;;25.80;50.80;;;;;;5052470;28;20211;-66
2022/11/06 06:26:43;;;;;;;7.73;1.60;;;26.20;48.90;;;;;;5051656;28;20219;-69
2022/11/06 06:29:10;;;;;;;4.83;1.70;;;25.40;50.80;;;;;;5046676;28;20184;-66
2022/11/06 06:31:37;;;;;;;7.37;1.50;;;25.80;50.20;;;;;;5049437;28;20741;-66
2022/11/06 06:34:05;;;;;;;6.30;1.17;;;25.90;49.40;;;;;;5052682;28;20172;-67
2022/11/06 06:36:32;;;;;;;5.47;1.60;;;25.50;50.10;;;;;;5051804;28;20203;-68
2022/11/06 06:39:00;;;;;;;5.93;1.40;;;25.10;50.80;;;;;;5049299;28;20180;-66
2022/11/06 06:41:27;;;;;;;3.43;1.40;;;25.40;49.80;;;;;;5048940;28;20577;-66
2022/11/06 06:43:54;;;;;;;6.80;1.70;;;25.40;49.70;;;;;;5052263;28;20179;-69
2022/11/06 06:46:22;;;;;;;6.63;1.50;;;25.50;50.10;;;;;;5046942;28;20565;-67
2022/11/06 06:48:49;;;;;;;5.37;1.33;;;25.10;51.70;;;;;;5051779;28;20214;-67
2022/11/06 06:51:16;;;;;;;6.60;1.30;;;25.50;50.30;;;;;;5052111;28;20176;-67
2022/11/06 06:53:44;;;;;;;4.40;1.10;;;24.30;52.60;;;;;;5052171;28;20685;-68
2022/11/06 06:56:11;;;;;;;3.67;1.60;;;24.70;52.50;;;;;;5048023;28;20187;-67
2022/11/06 06:58:38;;;;;;;7.77;1.83;;;24.30;53.50;;;;;;5047939;28;20676;-66
2022/11/06 07:01:09;;;;;;;7.10;1.70;;;24.50;52.90;;;;;;5052414;28;20188;-68
2022/11/06 07:03:40;;;;;;;7.10;1.70;;;24.60;51.30;;;;;;5052180;28;20536;-67
2022/11/06 07:06:07;;;;;;;6.33;1.33;;;23.90;54.20;;;;;;5052347;28;20211;-66
2022/11/06 07:08:35;;;;;;;6.30;1.47;;;24.00;54.90;;;;;;5052453;28;20301;-67
2022/11/06 07:11:04;;;;;;;5.33;1.20;;;24.00;54.60;;;;;;5051856;28;20168;-69
2022/11/06 07:13:32;;;;;;;15.97;2.03;;;23.30;56.40;;;;;;5045151;28;20655;-66
2022/11/06 07:16:01;;;;;;;8.80;1.77;;;22.60;58.70;;;;;;5050594;28;20200;-68
2022/11/06 07:18:29;;;;;;;6.87;1.60;;;22.50;59.20;;;;;;5051916;28;20736;-67
2022/11/06 07:20:56;;;;;;;12.67;1.83;;;22.10;60.80;;;;;;5051980;28;20180;-68
2022/11/06 07:23:23;;;;;;;5.57;1.50;;;22.10;61.30;;;;;;5051358;28;20550;-67
2022/11/06 07:25:54;;;;;;;7.83;1.33;;;21.90;62.40;;;;;;5040627;28;20176;-68
2022/11/06 07:28:21;;;;;;;6.80;1.30;;;21.50;63.60;;;;;;5050629;28;20182;-67
2022/11/06 07:30:49;;;;;;;4.33;1.17;;;21.30;64.40;;;;;;5041839;28;20227;-67
2022/11/06 07:33:16;;;;;;;7.10;1.20;;;21.40;63.90;;;;;;5051643;28;20858;-69
2022/11/06 07:35:44;;;;;;;7.63;1.47;;;21.20;64.50;;;;;;5052149;28;20184;-67
2022/11/06 07:38:12;;;;;;;5.30;1.30;;;20.80;65.60;;;;;;5051792;28;20215;-69
2022/11/06 07:40:39;;;;;;;7.73;1.53;;;20.80;65.60;;;;;;5051844;28;20183;-68
2022/11/06 07:43:08;;;;;;;7.53;1.50;;;20.60;66.00;;;;;;5051691;28;20168;-66
2022/11/06 07:45:36;;;;;;;4.40;1.40;;;20.70;65.90;;;;;;5051889;28;20230;-67
2022/11/06 07:48:05;;;;;;;4.73;1.43;;;20.50;66.60;;;;;;5043076;28;20267;-68
2022/11/06 07:50:32;;;;;;;8.73;1.70;;;20.30;67.40;;;;;;5052264;28;20210;-68
2022/11/06 07:53:02;;;;;;;8.07;1.70;;;20.30;67.60;;;;;;5051735;28;20180;-66
2022/11/06 07:55:30;;;;;;;6.37;1.63;;;20.40;67.30;;;;;;5051436;28;20195;-67
2022/11/06 07:57:58;;;;;;;6.53;1.50;;;20.30;67.70;;;;;;5044951;28;20216;-64
2022/11/06 08:00:26;;;;;;;9.60;2.10;;;20.30;67.60;;;;;;5048194;28;20662;-68
2022/11/06 08:02:53;;;;;;;3.77;1.10;;;20.20;68.10;;;;;;5051375;28;20179;-68
2022/11/06 08:05:21;;;;;;;7.50;1.60;;;20.20;68.00;;;;;;5038798;28;20188;-70
2022/11/06 08:07:48;;;;;;;8.83;1.37;;;20.10;68.20;;;;;;5050938;28;20255;-68
2022/11/06 08:10:16;;;;;;;8.23;1.50;;;20.10;68.20;;;;;;5045385;28;20185;-70
2022/11/06 08:12:43;;;;;;;6.47;1.60;;;20.10;68.10;;;;;;5061531;28;20629;-70
2022/11/06 08:15:11;;;;;;;8.20;2.00;;;20.00;68.50;;;;;;5051464;28;20541;-72
2022/11/06 08:17:38;;;;;;;9.63;1.90;;;20.00;68.80;;;;;;5038130;28;20600;-71
2022/11/06 08:20:06;;;;;;;6.83;1.40;;;19.90;68.90;;;;;;5051855;28;20222;-70
2022/11/06 08:22:34;;;;;;;8.67;1.30;;;19.80;69.00;;;;;;5038937;28;20180;-69
2022/11/06 08:25:01;;;;;;;7.70;1.50;;;19.80;69.40;;;;;;5051626;28;20184;-73
2022/11/06 08:27:28;;;;;;;7.60;1.50;;;19.80;69.50;;;;;;5050542;28;20298;-71
2022/11/06 08:29:56;;;;;;;7.67;1.70;;;19.70;69.30;;;;;;5051111;28;20183;-71
2022/11/06 08:32:23;;;;;;;4.87;1.20;;;19.70;69.30;;;;;;5048473;28;20191;-71
2022/11/06 08:34:50;;;;;;;4.17;1.20;;;19.60;69.50;;;;;;5056947;28;20267;-71
2022/11/06 08:37:20;;;;;;;6.10;1.47;;;19.60;69.60;;;;;;5054831;28;20196;-72
2022/11/06 08:39:47;;;;;;;8.40;1.33;;;19.70;69.70;;;;;;5047886;28;20251;-76
2022/11/06 08:42:15;;;;;;;8.80;1.80;;;19.70;69.80;;;;;;5054361;28;20190;-68
2022/11/06 08:44:42;;;;;;;7.57;1.30;;;19.60;70.10;;;;;;5054302;28;20311;-72
2022/11/06 08:47:09;;;;;;;7.43;1.57;;;19.60;70.20;;;;;;5046377;28;20221;-67
2022/11/06 08:49:37;;;;;;;5.27;1.40;;;19.60;69.90;;;;;;5054830;28;20183;-74
2022/11/06 08:52:04;;;;;;;6.23;1.40;;;19.60;69.90;;;;;;5054874;28;20424;-67
2022/11/06 08:54:31;;;;;;;3.90;1.20;;;19.60;69.80;;;;;;5053967;28;20257;-72
2022/11/06 08:56:59;;;;;;;9.43;1.70;;;19.50;70.20;;;;;;5052605;28;20215;-74
2022/11/06 08:59:26;;;;;;;10.90;2.10;;;19.40;70.30;;;;;;5051459;28;20176;-70
2022/11/06 09:01:56;;;;;;;7.60;1.63;;;19.50;70.20;;;;;;5055166;28;20184;-72
2022/11/06 09:04:23;;;;;;;10.37;1.23;;;19.50;69.90;;;;;;5044143;28;20180;-71
2022/11/06 09:06:50;;;;;;;11.20;1.70;;;19.40;69.00;;;;;;5044349;28;20183;-70
2022/11/06 09:09:18;;;;;;;5.83;1.50;;;19.50;69.00;;;;;;5054619;28;20176;-70
2022/11/06 09:11:45;;;;;;;5.27;1.90;;;19.50;69.50;;;;;;5054167;28;20224;-73
2022/11/06 09:14:12;;;;;;;8.03;1.37;;;19.50;69.30;;;;;;5048986;28;20181;-67
2022/11/06 09:16:40;;;;;;;6.47;1.47;;;19.40;69.20;;;;;;5047876;28;20881;-70
2022/11/06 09:19:09;;;;;;;5.63;1.50;;;19.30;69.40;;;;;;5045374;28;20184;-66
2022/11/06 09:21:36;;;;;;;8.73;1.87;;;19.40;69.20;;;;;;5044733;28;20176;-66
2022/11/06 09:24:03;;;;;;;7.67;1.77;;;19.30;69.30;;;;;;5051414;28;20231;-66
2022/11/06 09:26:31;;;;;;;7.73;1.73;;;19.40;69.20;;;;;;5053928;28;20195;-66
2022/11/06 09:28:58;;;;;;;7.27;1.43;;;19.30;69.30;;;;;;5051630;28;20676;-66
2022/11/06 09:31:25;;;;;;;6.83;1.50;;;19.30;69.70;;;;;;5053477;28;20176;-67
2022/11/06 09:33:54;;;;;;;5.57;1.40;;;19.30;70.20;;;;;;5043733;28;20234;-66
2022/11/06 09:36:22;;;;;;;4.93;1.57;;;19.30;70.00;;;;;;5040511;28;20242;-67
2022/11/06 09:38:49;;;;;;;9.53;2.23;;;19.30;70.10;;;;;;5050980;28;20183;-66
2022/11/06 09:41:57;;;;;;;7.63;1.40;;;19.20;70.20;;;;;;5053503;28;20168;-66
2022/11/06 09:44:58;;;;;;;14.60;5.63;;;19.30;70.40;;;;;;5052092;28;20230;-67
2022/11/06 09:47:31;;;;;;;15.13;3.80;;;19.30;70.20;;;;;;5051000;28;20188;-68
2022/11/06 09:49:59;;;;;;;5.37;1.67;;;19.30;70.40;;;;;;5043740;28;20181;-72
2022/11/06 09:52:37;;;;;;;5.57;1.50;;;19.30;70.20;;;;;;5053846;28;20615;-73
2022/11/06 09:55:14;;;;;;;7.47;1.70;;;19.20;70.10;;;;;;5035283;28;20642;-70
2022/11/06 09:57:45;;;;;;;8.20;1.40;;;19.20;70.20;;;;;;5049356;28;20219;-69
2022/11/06 10:00:15;;;;;;;6.20;1.43;;;19.20;70.00;;;;;;5051428;28;20258;-67
2022/11/06 10:02:45;;;;;;;8.50;1.80;;;19.20;70.30;;;;;;5022557;28;20582;-66
2022/11/06 10:05:29;;;;;;;10.87;1.80;;;19.20;70.60;;;;;;5046634;28;20267;-66
2022/11/06 10:08:07;;;;;;;7.90;1.47;;;19.20;71.00;;;;;;5052898;28;20168;-66
2022/11/06 10:11:10;;;;;;;8.03;1.40;;;19.10;71.40;;;;;;5051635;28;20637;-66
2022/11/06 10:13:47;;;;;;;7.40;1.37;;;19.10;71.60;;;;;;5037904;28;20194;-66
2022/11/06 10:16:23;;;;;;;8.93;1.50;;;19.20;71.80;;;;;;5049916;28;20183;-67
2022/11/06 10:18:57;;;;;;;9.73;2.37;;;19.10;72.00;;;;;;5035285;28;20190;-71
2022/11/06 10:21:49;;;;;;;11.23;5.10;;;19.10;72.00;;;;;;5046269;28;20221;-70
2022/11/06 10:24:28;;;;;;;9.00;2.20;;;19.10;72.30;;;;;;5042229;28;20191;-67
2022/11/06 10:26:56;;;;;;;7.70;1.63;;;19.10;72.60;;;;;;5051622;28;20180;-68
2022/11/06 10:29:42;;;;;;;8.23;2.13;;;19.00;72.70;;;;;;5052722;28;20654;-68
2022/11/06 10:32:22;;;;;;;12.70;7.40;;;19.10;73.20;;;;;;5053005;28;20266;-69
2022/11/06 10:34:57;;;;;;;23.67;12.33;;;19.10;74.30;;;;;;5046503;28;20179;-70
2022/11/06 10:37:39;;;;;;;7.17;1.50;;;19.00;75.00;;;;;;5047453;28;20224;-68
2022/11/06 10:40:11;;;;;;;16.83;7.07;;;19.00;75.10;;;;;;5050517;28;20180;-68
2022/11/06 10:42:40;;;;;;;8.07;3.70;;;19.00;75.20;;;;;;5045401;28;20249;-68
2022/11/06 10:45:17;;;;;;;7.43;1.77;;;19.00;75.00;;;;;;5047305;28;20678;-69
2022/11/06 10:48:23;;;;;;;7.27;1.30;;;19.00;75.00;;;;;;5047258;28;20188;-68
2022/11/06 10:51:07;;;;;;;8.60;1.47;;;19.00;75.20;;;;;;5044018;28;20176;-68
2022/11/06 10:53:46;;;;;;;9.23;1.70;;;19.00;75.40;;;;;;5052730;28;20249;-73
2022/11/06 10:56:50;;;;;;;5.55;1.45;;;18.90;75.50;;;;;;5049415;28;20187;-69
2022/11/06 10:59:17;;;;;;;9.90;1.60;;;18.90;75.90;;;;;;5050482;28;20188;-67
2022/11/06 11:01:45;;;;;;;6.10;1.43;;;18.90;76.00;;;;;;5052373;28;20172;-68
2022/11/06 11:04:12;;;;;;;9.30;1.77;;;19.00;75.90;;;;;;5052348;28;20271;-76
2022/11/06 11:06:40;;;;;;;8.47;1.73;;;18.90;75.80;;;;;;5052458;28;20194;-68
2022/11/06 11:09:40;;;;;;;12.60;1.67;;;18.80;76.00;;;;;;5051581;28;20649;-68
2022/11/06 11:12:24;;;;;;;7.60;1.40;;;18.80;75.70;;;;;;5018654;28;20721;-68
2022/11/06 11:15:15;;;;;;;9.70;1.70;;;18.90;75.30;;;;;;5040735;28;20695;-69
2022/11/06 11:18:02;;;;;;;11.53;4.10;;;18.80;75.40;;;;;;5051792;28;20558;-68
2022/11/06 11:20:33;;;;;;;11.43;5.07;;;18.80;75.60;;;;;;5038432;28;20239;-68
2022/11/06 11:23:24;;;;;;;8.43;3.10;;;18.80;75.80;;;;;;5051101;28;20255;-68
2022/11/06 11:25:53;;;;;;;6.43;2.87;;;18.80;75.90;;;;;;5052201;28;20637;-68
2022/11/06 11:28:23;;;;;;;8.97;2.50;;;18.80;76.00;;;;;;5045463;28;20643;-67
2022/11/06 11:31:04;;;;;;;11.23;1.93;;;18.80;76.00;;;;;;5051267;28;20180;-67
2022/11/06 11:33:32;;;;;;;11.40;2.30;;;18.80;76.30;;;;;;5051782;28;20722;-68
2022/11/06 11:36:01;;;;;;;11.53;3.67;;;18.80;76.20;;;;;;5047670;28;20211;-68
2022/11/06 11:38:29;;;;;;;10.70;4.73;;;18.80;76.50;;;;;;5051939;28;20215;-73
2022/11/06 11:41:25;;;;;;;15.40;4.67;;;18.80;76.60;;;;;;5051385;28;20184;-67
2022/11/06 11:44:04;;;;;;;16.90;7.67;;;18.80;76.70;;;;;;5025468;28;20199;-67
2022/11/06 11:46:32;;;;;;;19.13;8.37;;;18.80;76.70;;;;;;5047660;28;20700;-67
2022/11/06 11:49:01;;;;;;;9.73;2.03;;;18.80;76.80;;;;;;5050992;28;20188;-67
2022/11/06 11:51:33;;;;;;;9.03;2.00;;;18.80;76.70;;;;;;5051799;28;20540;-74
2022/11/06 11:54:15;;;;;;;8.27;1.60;;;18.80;77.00;;;;;;5046726;28;20183;-70
2022/11/06 11:57:00;;;;;;;8.23;1.90;;;18.80;77.10;;;;;;5051562;28;20744;-72
2022/11/06 11:59:32;;;;;;;12.20;1.60;;;18.70;77.30;;;;;;5045448;28;20214;-74
2022/11/06 12:02:19;;;;;;;4.93;1.40;;;18.70;77.60;;;;;;5046169;28;20180;-74
2022/11/06 12:04:51;;;;;;;8.53;1.50;;;18.60;77.70;;;;;;5050029;28;20183;-73
2022/11/06 12:07:26;;;;;;;14.07;1.93;;;18.50;77.90;;;;;;5051535;28;20183;-72
2022/11/06 12:09:54;;;;;;;8.80;1.50;;;18.50;78.20;;;;;;5051244;28;20199;-74
2022/11/06 12:12:30;;;;;;;6.60;1.27;;;18.50;78.80;;;;;;5055399;28;20222;-68
2022/11/06 12:15:14;;;;;;;9.10;1.93;;;18.50;78.80;;;;;;5045597;28;20229;-74
2022/11/06 12:17:43;;;;;;;6.80;1.60;;;18.40;78.70;;;;;;5055552;28;20704;-67
2022/11/06 12:20:18;;;;;;;6.87;1.83;;;18.30;78.60;;;;;;5054545;28;20565;-71
2022/11/06 12:22:48;;;;;;;9.07;1.80;;;18.30;78.50;;;;;;5055476;28;20183;-72
2022/11/06 12:25:32;;;;;;;6.10;1.43;;;18.30;78.70;;;;;;5054449;28;20196;-70
2022/11/06 12:28:01;;;;;;;7.93;2.23;;;18.30;79.10;;;;;;5054947;28;20180;-75
2022/11/06 12:30:31;;;;;;;8.13;1.63;;;18.20;79.10;;;;;;5048956;28;20172;-74
2022/11/06 12:33:19;;;;;;;6.90;1.93;;;18.20;79.50;;;;;;5051639;28;20231;-71
2022/11/06 12:36:00;;;;;;;8.37;1.63;;;18.10;79.50;;;;;;5054994;28;20174;-68
2022/11/06 12:38:30;;;;;;;8.07;1.93;;;18.10;79.80;;;;;;5054767;28;20215;-68
2022/11/06 12:41:02;;;;;;;5.33;1.67;;;18.00;79.80;;;;;;5054309;28;20279;-69
2022/11/06 12:43:49;;;;;;;6.80;1.50;;;18.10;80.10;;;;;;5054696;28;20184;-69
2022/11/06 12:46:25;;;;;;;4.73;1.40;;;18.10;79.50;;;;;;5055210;28;20729;-67
2022/11/06 12:49:03;;;;;;;6.40;1.60;;;18.10;79.80;;;;;;5052681;28;20642;-68
2022/11/06 12:51:48;;;;;;;10.70;1.80;;;18.00;80.00;;;;;;5053970;28;20245;-69
2022/11/06 12:54:50;;;;;;;12.13;1.53;;;18.10;79.90;;;;;;5046736;28;20191;-68
2022/11/06 12:57:39;;;;;;;6.17;1.60;;;18.00;80.10;;;;;;5053029;28;20219;-67
2022/11/06 13:00:50;;;;;;;6.40;1.80;;;18.00;80.20;;;;;;5054507;28;20198;-67
2022/11/06 13:03:41;;;;;;;4.47;1.50;;;18.00;80.30;;;;;;5036344;28;20193;-67
2022/11/06 13:06:33;;;;;;;9.10;1.70;;;17.90;80.30;;;;;;5054888;28;20172;-69
2022/11/06 13:09:08;;;;;;;9.03;1.67;;;17.80;80.70;;;;;;5054707;28;20187;-68
2022/11/06 13:11:47;;;;;;;7.03;1.60;;;17.80;80.40;;;;;;5049780;28;20684;-68
2022/11/06 13:14:30;;;;;;;6.40;1.70;;;17.80;80.60;;;;;;5054264;28;20202;-68
2022/11/06 13:17:12;;;;;;;6.43;1.77;;;17.80;80.80;;;;;;5054342;28;20230;-67
2022/11/06 13:19:48;;;;;;;8.47;1.70;;;17.80;81.00;;;;;;5048684;28;20176;-67
2022/11/06 13:22:24;;;;;;;6.87;1.60;;;17.80;81.00;;;;;;5047193;28;20234;-67
2022/11/06 13:24:57;;;;;;;6.57;1.70;;;17.80;81.30;;;;;;5054621;28;20175;-67
2022/11/06 13:27:39;;;;;;;6.03;1.57;;;17.80;80.90;;;;;;5048817;28;20203;-67
2022/11/06 13:30:18;;;;;;;10.70;2.03;;;17.70;80.90;;;;;;5054187;28;20179;-67
2022/11/06 13:33:08;;;;;;;8.70;1.73;;;17.70;81.40;;;;;;5054434;28;20179;-73